Time;durP1;ratioP1;P1;durP2;ratioP2;P2;SDS_P1;SDS_P2;PMS_P1;PMS_P2;Temp;Humidity;BMP_temperature;BMP_pressure;BME280_temperature;BME280_humidity;BME280_pressure;Samples;Min_cycle;Max_cycle;Signal;HPM_P1;HPM_P2
2022/05/08 00:01:29;;;;;;;59.50;3.10;;;;;;;;;;5055235;28;20545;-76
2022/05/08 00:03:56;;;;;;;58.87;3.20;;;;;;;;;;5055009;28;20887;-76
2022/05/08 00:06:23;;;;;;;59.80;3.70;;;;;;;;;;5054779;28;20452;-76
2022/05/08 00:08:50;;;;;;;59.47;3.60;;;;;;;;;;5054126;28;20540;-76
2022/05/08 00:11:19;;;;;;;59.50;3.70;;;;;;;;;;5054792;28;20558;-76
2022/05/08 00:13:47;;;;;;;58.73;3.10;;;;;;;;;;5054969;28;20448;-76
2022/05/08 00:16:14;;;;;;;58.63;2.63;;;;;;;;;;5054761;28;20501;-76
2022/05/08 00:18:41;;;;;;;58.57;2.90;;;;;;;;;;5054177;28;20824;-76
2022/05/08 00:21:08;;;;;;;58.37;2.80;;;;;;;;;;5054628;28;20468;-76
2022/05/08 00:23:36;;;;;;;59.30;4.23;;;;;;;;;;5054641;28;20547;-76
2022/05/08 00:26:07;;;;;;;59.17;3.43;;;;;;;;;;5053188;28;20579;-76
2022/05/08 00:28:35;;;;;;;58.73;2.80;;;;;;;;;;5073716;28;20939;-76
2022/05/08 00:31:03;;;;;;;59.10;3.40;;;;;;;;;;5074357;28;20474;-76
2022/05/08 00:33:30;;;;;;;59.60;4.60;;;;;;;;;;5074423;28;20576;-76
2022/05/08 00:35:57;;;;;;;58.67;2.80;;;;;;;;;;5074027;28;20454;-76
2022/05/08 00:38:24;;;;;;;59.00;3.13;;;;;;;;;;5073169;28;20538;-76
2022/05/08 00:40:51;;;;;;;58.70;2.90;;;;;;;;;;5074281;28;20467;-76
2022/05/08 00:43:32;;;;;;;58.93;3.10;;;;;;;;;;5074300;28;20451;-76
2022/05/08 00:46:01;;;;;;;59.70;3.00;;;;;;;;;;5074185;28;20483;-76
2022/05/08 00:48:29;;;;;;;58.67;3.03;;;;;;;;;;5073391;28;20451;-77
2022/05/08 00:50:56;;;;;;;59.20;3.30;;;;;;;;;;5073272;28;20474;-76
2022/05/08 00:53:24;;;;;;;58.57;2.90;;;;;;;;;;5074133;28;20540;-76
2022/05/08 00:55:51;;;;;;;59.00;2.80;;;;;;;;;;5074354;28;20454;-76
2022/05/08 00:58:18;;;;;;;58.83;2.80;;;;;;;;;;5071034;28;20939;-76
2022/05/08 01:00:46;;;;;;;58.87;2.73;;;;;;;;;;5052613;28;20558;-76
2022/05/08 01:03:15;;;;;;;58.77;2.97;;;;;;;;;;5053370;28;20952;-77
2022/05/08 01:05:42;;;;;;;59.63;3.73;;;;;;;;;;5053113;28;20490;-76
2022/05/08 01:08:10;;;;;;;58.70;2.90;;;;;;;;;;5052953;28;20490;-76
2022/05/08 01:10:37;;;;;;;58.90;3.20;;;;;;;;;;5053546;28;20476;-76
2022/05/08 01:13:05;;;;;;;59.57;3.30;;;;;;;;;;5053799;28;20451;-76
2022/05/08 01:15:39;;;;;;;58.90;3.10;;;;;;;;;;5053499;28;20939;-76
2022/05/08 01:18:06;;;;;;;58.80;3.10;;;;;;;;;;5052772;28;20549;-76
2022/05/08 01:20:35;;;;;;;59.60;3.40;;;;;;;;;;5053128;28;20472;-76
2022/05/08 01:23:05;;;;;;;58.47;2.77;;;;;;;;;;5053594;28;20450;-76
2022/05/08 01:25:32;;;;;;;58.50;2.80;;;;;;;;;;5053405;28;20574;-76
2022/05/08 01:27:59;;;;;;;61.93;4.50;;;;;;;;;;5052798;28;20867;-75
2022/05/08 01:30:26;;;;;;;58.97;3.10;;;;;;;;;;5051075;28;21002;-76
2022/05/08 01:32:53;;;;;;;58.97;3.10;;;;;;;;;;5072926;28;20938;-76
2022/05/08 01:35:21;;;;;;;58.67;2.83;;;;;;;;;;5072974;28;20455;-76
2022/05/08 01:37:48;;;;;;;58.77;2.90;;;;;;;;;;5072540;28;21065;-76
2022/05/08 01:40:18;;;;;;;59.00;3.20;;;;;;;;;;5073040;28;20483;-76
2022/05/08 01:42:45;;;;;;;58.63;2.80;;;;;;;;;;5072901;28;20454;-76
2022/05/08 01:45:12;;;;;;;58.77;2.70;;;;;;;;;;5065019;28;20854;-76
2022/05/08 01:50:25;;;;;;;59.07;3.17;;;;;;;;;;5053636;28;20474;-75
2022/05/08 01:52:52;;;;;;;58.63;2.73;;;;;;;;;;5055086;28;20455;-76
2022/05/08 01:55:21;;;;;;;59.07;3.40;;;;;;;;;;5052766;28;20444;-76
2022/05/08 01:57:48;;;;;;;59.30;3.70;;;;;;;;;;5052477;28;20530;-76
2022/05/08 02:00:15;;;;;;;59.27;3.70;;;;;;;;;;5053143;28;21014;-76
2022/05/08 02:02:47;;;;;;;62.60;4.80;;;;;;;;;;5050910;28;20840;-77
2022/05/08 02:05:15;;;;;;;58.83;3.07;;;;;;;;;;5072657;28;20910;-77
2022/05/08 02:07:42;;;;;;;61.40;3.30;;;;;;;;;;5071868;28;20908;-76
2022/05/08 02:10:10;;;;;;;59.07;3.27;;;;;;;;;;5072262;28;20488;-76
2022/05/08 02:12:38;;;;;;;58.67;3.00;;;;;;;;;;5072862;28;20442;-76
2022/05/08 02:15:06;;;;;;;58.67;2.70;;;;;;;;;;5073158;28;20453;-76
2022/05/08 02:17:33;;;;;;;59.30;3.47;;;;;;;;;;5071852;28;21002;-76
2022/05/08 02:20:00;;;;;;;58.87;3.00;;;;;;;;;;5072436;28;20501;-76
2022/05/08 02:22:28;;;;;;;59.90;4.07;;;;;;;;;;5072103;28;20492;-76
2022/05/08 02:24:55;;;;;;;58.57;2.80;;;;;;;;;;5072206;28;20489;-76
2022/05/08 02:27:22;;;;;;;59.10;3.30;;;;;;;;;;5071723;28;20457;-76
2022/05/08 02:29:51;;;;;;;58.87;3.10;;;;;;;;;;5072265;28;20506;-76
2022/05/08 02:32:18;;;;;;;58.70;3.30;;;;;;;;;;5072027;28;20489;-76
2022/05/08 02:34:46;;;;;;;58.67;2.63;;;;;;;;;;5068071;28;20466;-76
2022/05/08 02:37:13;;;;;;;59.37;3.37;;;;;;;;;;5071696;28;20534;-76
2022/05/08 02:39:40;;;;;;;59.50;3.23;;;;;;;;;;5071901;28;20482;-74
2022/05/08 02:42:08;;;;;;;59.00;3.27;;;;;;;;;;5072376;28;20447;-76
2022/05/08 02:44:35;;;;;;;58.77;2.80;;;;;;;;;;5071896;28;20447;-76
2022/05/08 02:47:03;;;;;;;58.53;2.70;;;;;;;;;;5071812;28;20485;-76
2022/05/08 02:49:30;;;;;;;58.57;3.00;;;;;;;;;;5071790;28;20508;-76
2022/05/08 02:51:58;;;;;;;58.90;2.90;;;;;;;;;;5072339;28;20450;-76
2022/05/08 02:54:25;;;;;;;58.77;3.07;;;;;;;;;;5072120;28;20456;-76
2022/05/08 02:59:36;;;;;;;58.67;2.67;;;;;;;;;;5071886;28;20441;-76
2022/05/08 03:02:06;;;;;;;58.77;2.80;;;;;;;;;;5071723;28;20545;-77
2022/05/08 03:04:33;;;;;;;58.97;3.20;;;;;;;;;;5071941;28;20537;-76
2022/05/08 03:07:01;;;;;;;58.87;3.00;;;;;;;;;;5070458;28;20508;-77
2022/05/08 03:09:29;;;;;;;58.80;2.70;;;;;;;;;;5049601;28;20681;-76
2022/05/08 03:11:56;;;;;;;59.00;3.00;;;;;;;;;;5051648;28;20457;-76
2022/05/08 03:14:24;;;;;;;59.40;3.20;;;;;;;;;;5051504;28;20479;-76
2022/05/08 03:16:51;;;;;;;58.60;2.73;;;;;;;;;;5051772;28;20444;-76
2022/05/08 03:19:21;;;;;;;58.87;2.80;;;;;;;;;;5050993;28;20452;-76
2022/05/08 03:21:51;;;;;;;58.90;3.40;;;;;;;;;;5051676;28;20887;-76
2022/05/08 03:24:18;;;;;;;58.87;3.00;;;;;;;;;;5051814;28;20451;-76
2022/05/08 03:26:45;;;;;;;58.57;3.03;;;;;;;;;;5051462;28;20546;-76
2022/05/08 03:29:12;;;;;;;58.63;2.90;;;;;;;;;;5050703;28;20455;-76
2022/05/08 03:31:40;;;;;;;58.77;3.10;;;;;;;;;;5051579;28;20895;-76
2022/05/08 03:34:07;;;;;;;58.83;2.90;;;;;;;;;;5051417;28;20478;-77
2022/05/08 03:36:36;;;;;;;59.10;4.30;;;;;;;;;;5051547;28;20529;-76
2022/05/08 03:39:03;;;;;;;59.07;3.60;;;;;;;;;;5049300;28;20977;-77
2022/05/08 03:41:30;;;;;;;62.07;4.43;;;;;;;;;;5050722;28;20458;-76
2022/05/08 03:43:57;;;;;;;59.17;4.00;;;;;;;;;;5051556;28;20461;-77
2022/05/08 03:46:25;;;;;;;59.07;3.20;;;;;;;;;;5051378;28;20585;-76
2022/05/08 03:48:52;;;;;;;58.77;2.90;;;;;;;;;;5050651;28;20453;-76
2022/05/08 03:51:19;;;;;;;59.20;3.30;;;;;;;;;;5051297;28;21008;-76
2022/05/08 03:53:47;;;;;;;58.77;3.10;;;;;;;;;;5051165;28;20447;-76
2022/05/08 03:56:15;;;;;;;59.63;3.37;;;;;;;;;;5051072;28;20447;-76
2022/05/08 03:58:42;;;;;;;59.57;3.50;;;;;;;;;;5050479;28;20541;-74
2022/05/08 04:01:09;;;;;;;58.80;3.00;;;;;;;;;;5051248;28;21058;-76
2022/05/08 04:03:36;;;;;;;59.07;3.10;;;;;;;;;;5051298;28;20508;-77
2022/05/08 04:06:04;;;;;;;59.10;3.10;;;;;;;;;;5051290;28;20478;-76
2022/05/08 04:08:32;;;;;;;58.97;2.97;;;;;;;;;;5053115;28;20459;-76
2022/05/08 04:14:04;;;;;;;59.03;3.00;;;;;;;;;;5051154;28;20918;-76
2022/05/08 04:16:32;;;;;;;59.10;3.20;;;;;;;;;;5054840;28;20453;-76
2022/05/08 04:18:59;;;;;;;58.83;3.40;;;;;;;;;;5053889;28;20465;-76
2022/05/08 04:21:26;;;;;;;59.97;4.80;;;;;;;;;;5054143;28;20848;-76
2022/05/08 04:26:38;;;;;;;59.20;3.40;;;;;;;;;;5054638;28;20484;-77
2022/05/08 04:29:06;;;;;;;59.30;3.40;;;;;;;;;;5053990;28;20446;-76
2022/05/08 04:31:34;;;;;;;58.67;2.93;;;;;;;;;;5054649;28;20547;-76
2022/05/08 04:34:01;;;;;;;59.10;3.40;;;;;;;;;;5054125;28;20537;-76
2022/05/08 04:36:29;;;;;;;59.13;3.00;;;;;;;;;;5054213;28;20536;-77
2022/05/08 04:38:56;;;;;;;58.67;3.00;;;;;;;;;;5053727;28;20560;-76
2022/05/08 04:41:23;;;;;;;58.83;2.80;;;;;;;;;;5054457;28;20466;-77
2022/05/08 04:43:51;;;;;;;58.97;3.90;;;;;;;;;;5053870;28;20455;-76
2022/05/08 04:46:20;;;;;;;58.87;3.00;;;;;;;;;;5074491;28;20484;-75
2022/05/08 04:48:47;;;;;;;58.73;2.93;;;;;;;;;;5073036;28;20455;-76
2022/05/08 04:51:14;;;;;;;59.97;3.73;;;;;;;;;;5073298;28;20729;-76
2022/05/08 04:53:41;;;;;;;58.77;3.03;;;;;;;;;;5073031;28;20452;-76
2022/05/08 04:56:08;;;;;;;58.50;2.90;;;;;;;;;;5073745;28;20450;-76
2022/05/08 04:58:36;;;;;;;58.67;3.00;;;;;;;;;;5072875;28;20535;-77
2022/05/08 05:01:04;;;;;;;58.47;2.90;;;;;;;;;;5073413;28;21066;-77
2022/05/08 05:03:32;;;;;;;59.10;3.23;;;;;;;;;;5072353;28;20486;-76
2022/05/08 05:06:00;;;;;;;59.30;3.43;;;;;;;;;;5072290;28;20489;-76
2022/05/08 05:08:27;;;;;;;58.93;3.10;;;;;;;;;;5071528;28;20541;-76
2022/05/08 05:10:54;;;;;;;58.67;2.90;;;;;;;;;;5072496;28;20470;-77
2022/05/08 05:13:21;;;;;;;58.63;3.20;;;;;;;;;;5072605;28;20956;-77
2022/05/08 05:15:48;;;;;;;58.83;3.10;;;;;;;;;;5070300;28;20539;-77
2022/05/08 05:18:15;;;;;;;59.00;3.27;;;;;;;;;;5072321;28;20487;-76
2022/05/08 05:20:45;;;;;;;58.77;2.87;;;;;;;;;;5072556;28;20549;-76
2022/05/08 05:23:12;;;;;;;60.10;3.90;;;;;;;;;;5073697;28;20461;-77
2022/05/08 05:25:39;;;;;;;58.53;3.17;;;;;;;;;;5073512;28;20541;-77
2022/05/08 05:28:07;;;;;;;58.80;3.07;;;;;;;;;;5072799;28;20450;-76
2022/05/08 05:30:34;;;;;;;59.93;4.00;;;;;;;;;;5073173;28;20503;-76
2022/05/08 05:33:01;;;;;;;58.57;2.77;;;;;;;;;;5073224;28;20452;-77
2022/05/08 05:35:28;;;;;;;58.70;2.80;;;;;;;;;;5072797;28;20835;-77
2022/05/08 05:37:57;;;;;;;59.67;3.50;;;;;;;;;;5072472;28;20450;-76
2022/05/08 05:40:24;;;;;;;59.10;3.73;;;;;;;;;;5073376;28;20481;-76
2022/05/08 05:42:52;;;;;;;58.77;3.00;;;;;;;;;;5073143;28;20829;-76
2022/05/08 05:45:19;;;;;;;60.13;3.87;;;;;;;;;;5072917;28;20453;-76
2022/05/08 05:47:52;;;;;;;58.47;2.83;;;;;;;;;;5072507;28;20581;-77
2022/05/08 05:50:20;;;;;;;61.47;3.77;;;;;;;;;;5069783;28;20470;-77
2022/05/08 05:52:47;;;;;;;58.67;2.90;;;;;;;;;;5073203;28;20505;-76
2022/05/08 05:55:16;;;;;;;58.67;2.80;;;;;;;;;;5073024;28;20446;-76
2022/05/08 05:57:43;;;;;;;59.70;3.40;;;;;;;;;;5072131;28;20947;-77
2022/05/08 06:00:11;;;;;;;58.80;3.07;;;;;;;;;;5072728;28;20470;-77
2022/05/08 06:02:39;;;;;;;58.57;2.93;;;;;;;;;;5072694;28;20451;-77
2022/05/08 06:05:07;;;;;;;58.37;2.80;;;;;;;;;;5072488;28;20485;-77
2022/05/08 06:07:34;;;;;;;59.97;3.57;;;;;;;;;;5072127;28;20490;-77
2022/05/08 06:10:01;;;;;;;58.93;3.30;;;;;;;;;;5071793;28;20559;-76
2022/05/08 06:12:29;;;;;;;58.87;2.90;;;;;;;;;;5072580;28;20447;-77
2022/05/08 06:14:57;;;;;;;58.57;3.30;;;;;;;;;;5072817;28;20455;-77
2022/05/08 06:17:24;;;;;;;58.77;2.80;;;;;;;;;;5072091;28;20447;-77
2022/05/08 06:19:51;;;;;;;58.60;2.80;;;;;;;;;;5072419;28;20553;-77
2022/05/08 06:22:18;;;;;;;58.53;2.80;;;;;;;;;;5069087;28;20524;-77
2022/05/08 06:24:45;;;;;;;58.63;3.00;;;;;;;;;;5072212;28;20459;-77
2022/05/08 06:27:13;;;;;;;58.90;3.10;;;;;;;;;;5071508;28;20582;-77
2022/05/08 06:29:41;;;;;;;58.33;2.90;;;;;;;;;;5072279;28;20561;-77
2022/05/08 06:32:09;;;;;;;58.87;3.43;;;;;;;;;;5072340;28;21021;-77
2022/05/08 06:34:36;;;;;;;59.60;4.07;;;;;;;;;;5072353;28;20444;-77
2022/05/08 06:37:04;;;;;;;58.63;3.30;;;;;;;;;;5072130;28;20490;-77
2022/05/08 06:39:33;;;;;;;58.57;3.37;;;;;;;;;;5071543;28;20518;-77
2022/05/08 06:42:00;;;;;;;60.13;3.30;;;;;;;;;;5072209;28;20814;-77
2022/05/08 06:44:27;;;;;;;58.47;2.87;;;;;;;;;;5072308;28;20443;-77
2022/05/08 06:46:56;;;;;;;58.57;3.43;;;;;;;;;;5072144;28;20483;-77
2022/05/08 06:49:23;;;;;;;59.83;3.27;;;;;;;;;;5071427;28;20499;-77
2022/05/08 06:51:50;;;;;;;59.10;3.50;;;;;;;;;;5071436;28;21001;-77
2022/05/08 06:54:18;;;;;;;58.53;3.10;;;;;;;;;;5068607;28;20539;-77
2022/05/08 06:56:45;;;;;;;58.40;2.87;;;;;;;;;;5071922;28;20952;-77
2022/05/08 07:01:58;;;;;;;59.60;3.50;;;;;;;;;;5071857;28;20809;-77
2022/05/08 07:04:26;;;;;;;58.77;3.23;;;;;;;;;;5071614;28;20458;-77
2022/05/08 07:06:53;;;;;;;59.10;3.20;;;;;;;;;;5072374;28;20931;-77
2022/05/08 07:09:20;;;;;;;58.97;3.00;;;;;;;;;;5071455;28;20455;-77
2022/05/08 07:11:48;;;;;;;59.10;3.90;;;;;;;;;;5071849;28;20447;-77
2022/05/08 07:14:15;;;;;;;58.70;4.30;;;;;;;;;;5071658;28;20456;-77
2022/05/08 07:16:42;;;;;;;63.83;4.87;;;;;;;;;;5071800;28;20439;-77
2022/05/08 07:19:11;;;;;;;58.70;3.30;;;;;;;;;;5070826;28;20454;-77
2022/05/08 07:21:38;;;;;;;58.17;3.13;;;;;;;;;;5071793;28;20457;-77
2022/05/08 07:24:05;;;;;;;58.87;3.73;;;;;;;;;;5070784;28;20539;-77
2022/05/08 07:26:33;;;;;;;58.30;2.80;;;;;;;;;;5052460;28;20901;-77
2022/05/08 07:29:00;;;;;;;58.90;3.33;;;;;;;;;;5050884;28;20444;-77
2022/05/08 07:31:27;;;;;;;60.13;4.97;;;;;;;;;;5051363;28;20540;-77
2022/05/08 07:36:37;;;;;;;59.20;4.13;;;;;;;;;;5051230;28;20440;-77
2022/05/08 07:39:04;;;;;;;58.87;3.23;;;;;;;;;;5050851;28;20590;-77
2022/05/08 07:41:31;;;;;;;59.97;4.57;;;;;;;;;;5051443;28;20537;-77
2022/05/08 07:43:58;;;;;;;58.97;3.60;;;;;;;;;;5054883;28;20996;-77
2022/05/08 07:46:26;;;;;;;59.17;4.30;;;;;;;;;;5055121;28;20479;-78
2022/05/08 07:48:53;;;;;;;60.07;4.53;;;;;;;;;;5054804;28;20535;-77
2022/05/08 07:51:20;;;;;;;60.90;4.73;;;;;;;;;;5055353;28;20676;-77
2022/05/08 07:53:48;;;;;;;59.40;4.27;;;;;;;;;;5055404;28;20539;-77
2022/05/08 07:56:16;;;;;;;59.13;3.90;;;;;;;;;;5055495;28;20444;-77
2022/05/08 07:58:43;;;;;;;60.30;4.40;;;;;;;;;;5070119;28;20455;-77
2022/05/08 08:01:10;;;;;;;58.63;3.30;;;;;;;;;;5075045;28;21067;-77
2022/05/08 08:03:37;;;;;;;60.47;5.43;;;;;;;;;;5075168;28;20476;-77
2022/05/08 08:06:05;;;;;;;59.77;5.17;;;;;;;;;;5075040;28;20455;-77
2022/05/08 08:08:32;;;;;;;60.10;4.10;;;;;;;;;;5074363;28;20489;-77
2022/05/08 08:11:03;;;;;;;61.40;4.13;;;;;;;;;;5074801;28;20535;-77
2022/05/08 08:13:31;;;;;;;58.33;3.80;;;;;;;;;;5079527;28;20453;-76
2022/05/08 08:15:59;;;;;;;58.67;4.07;;;;;;;;;;5074942;28;20508;-77
2022/05/08 08:18:26;;;;;;;59.27;3.90;;;;;;;;;;5074104;28;20445;-76
2022/05/08 08:20:54;;;;;;;60.70;4.50;;;;;;;;;;5074835;28;20474;-77
2022/05/08 08:23:21;;;;;;;60.17;4.80;;;;;;;;;;5074805;28;20454;-74
2022/05/08 08:25:48;;;;;;;60.27;4.93;;;;;;;;;;5074618;28;20454;-74
2022/05/08 08:28:16;;;;;;;60.60;5.57;;;;;;;;;;5073107;28;20494;-78
2022/05/08 08:30:44;;;;;;;61.37;4.97;;;;;;;;;;5072513;28;20474;-77
2022/05/08 08:33:11;;;;;;;60.73;6.27;;;;;;;;;;5074659;28;20830;-77
2022/05/08 08:35:39;;;;;;;59.70;4.23;;;;;;;;;;5074516;28;20450;-77
2022/05/08 08:38:06;;;;;;;58.80;3.70;;;;;;;;;;5073595;28;20827;-78
2022/05/08 08:40:35;;;;;;;59.70;5.00;;;;;;;;;;5074769;28;20562;-77
2022/05/08 08:43:03;;;;;;;60.10;4.77;;;;;;;;;;5074295;28;20487;-78
2022/05/08 08:48:22;;;;;;;59.90;5.27;;;;;;;;;;5073666;28;20482;-77
2022/05/08 08:50:49;;;;;;;59.57;4.17;;;;;;;;;;5074057;28;20471;-77
2022/05/08 08:53:17;;;;;;;62.60;6.77;;;;;;;;;;5073960;28;20446;-77
2022/05/08 08:55:48;;;;;;;60.10;4.40;;;;;;;;;;5073344;28;20460;-77
2022/05/08 08:58:17;;;;;;;60.80;4.77;;;;;;;;;;5073414;28;21010;-78
2022/05/08 09:00:46;;;;;;;59.00;4.43;;;;;;;;;;5069970;28;20495;-78
2022/05/08 09:03:13;;;;;;;59.67;4.13;;;;;;;;;;5074471;28;20488;-78
2022/05/08 09:05:41;;;;;;;64.20;5.23;;;;;;;;;;5074094;28;20541;-76
2022/05/08 09:08:09;;;;;;;59.13;4.00;;;;;;;;;;5073414;28;20491;-76
2022/05/08 09:10:36;;;;;;;61.17;6.00;;;;;;;;;;5073848;28;20557;-78
2022/05/08 09:13:07;;;;;;;60.77;5.20;;;;;;;;;;5073870;28;20447;-78
2022/05/08 09:15:35;;;;;;;63.77;4.80;;;;;;;;;;5073714;28;20495;-79
2022/05/08 09:18:04;;;;;;;60.20;5.30;;;;;;;;;;5073345;28;20447;-78
2022/05/08 09:20:33;;;;;;;61.07;5.80;;;;;;;;;;5073843;28;20558;-78
2022/05/08 09:23:04;;;;;;;59.57;4.20;;;;;;;;;;5073735;28;20880;-78
2022/05/08 09:25:44;;;;;;;61.20;5.73;;;;;;;;;;5073631;28;20454;-78
2022/05/08 09:28:11;;;;;;;62.67;5.23;;;;;;;;;;5072706;28;21071;-78
2022/05/08 09:30:53;;;;;;;61.00;4.90;;;;;;;;;;5073655;28;20570;-78
2022/05/08 09:33:26;;;;;;;59.90;4.43;;;;;;;;;;5070755;28;20814;-78
2022/05/08 09:35:53;;;;;;;61.40;5.50;;;;;;;;;;5073500;28;20537;-77
2022/05/08 09:38:21;;;;;;;59.77;5.07;;;;;;;;;;5072526;28;20457;-77
2022/05/08 09:41:05;;;;;;;59.90;4.73;;;;;;;;;;5073465;28;20560;-77
2022/05/08 09:43:32;;;;;;;59.37;4.53;;;;;;;;;;5073167;28;20954;-77
2022/05/08 09:45:59;;;;;;;60.47;4.80;;;;;;;;;;5073471;28;20463;-75
2022/05/08 09:48:28;;;;;;;61.10;5.23;;;;;;;;;;5072382;28;20490;-74
2022/05/08 09:53:42;;;;;;;59.30;4.50;;;;;;;;;;5030337;28;21064;-77
2022/05/08 09:56:10;;;;;;;61.10;4.30;;;;;;;;;;5007952;28;20453;-75
2022/05/08 09:58:38;;;;;;;60.53;4.67;;;;;;;;;;5010224;28;21081;-74
2022/05/08 10:01:07;;;;;;;60.33;4.67;;;;;;;;;;5011160;28;20469;-76
2022/05/08 10:03:35;;;;;;;62.80;4.30;;;;;;;;;;5008907;28;20452;-75
2022/05/08 10:06:02;;;;;;;60.37;4.80;;;;;;;;;;5009590;28;20460;-75
2022/05/08 10:08:31;;;;;;;60.00;4.90;;;;;;;;;;5009902;28;20488;-75
2022/05/08 10:16:59;;;;;;;58.53;3.13;;;;;;;;;;5010833;28;20426;-74
2022/05/08 10:20:00;;;;;;;58.03;2.90;;;;;;;;;;5010162;28;20507;-75
2022/05/08 10:22:46;;;;;;;59.13;3.53;;;;;;;;;;5010642;28;20505;-75
2022/05/08 10:25:15;;;;;;;58.60;2.83;;;;;;;;;;5044047;28;20978;-73
2022/05/08 10:27:43;;;;;;;58.40;3.13;;;;;;;;;;5052149;28;20566;-73
2022/05/08 10:30:28;;;;;;;58.23;3.20;;;;;;;;;;5052405;28;21007;-73
2022/05/08 10:32:55;;;;;;;58.50;3.40;;;;;;;;;;5052686;28;20528;-74
2022/05/08 10:35:23;;;;;;;58.30;2.90;;;;;;;;;;5052441;28;20957;-76
2022/05/08 10:37:52;;;;;;;58.60;3.30;;;;;;;;;;5051678;28;20448;-75
2022/05/08 10:40:32;;;;;;;75.23;3.83;;;;;;;;;;5052161;28;20556;-75
2022/05/08 10:43:01;;;;;;;60.20;4.50;;;;;;;;;;5052524;28;20452;-75
2022/05/08 10:45:41;;;;;;;58.20;2.93;;;;;;;;;;5052298;28;20522;-72
2022/05/08 10:48:15;;;;;;;59.37;3.80;;;;;;;;;;5052089;28;20566;-75
2022/05/08 10:50:43;;;;;;;59.27;3.47;;;;;;;;;;5052240;28;20493;-72
2022/05/08 10:53:26;;;;;;;58.70;3.37;;;;;;;;;;5052158;28;20448;-78
2022/05/08 10:55:54;;;;;;;59.30;3.70;;;;;;;;;;5051982;28;20444;-74
2022/05/08 10:58:21;;;;;;;58.70;3.53;;;;;;;;;;5052956;28;20963;-75
2022/05/08 11:00:48;;;;;;;58.67;3.33;;;;;;;;;;5052268;28;20464;-72
2022/05/08 11:03:21;;;;;;;59.07;3.63;;;;;;;;;;5052100;28;20815;-72
2022/05/08 11:05:49;;;;;;;58.90;3.60;;;;;;;;;;5052073;28;20506;-74
2022/05/08 11:08:22;;;;;;;58.27;2.93;;;;;;;;;;5051294;28;20484;-72
2022/05/08 11:10:57;;;;;;;58.30;3.10;;;;;;;;;;5051807;28;20964;-73
2022/05/08 11:13:26;;;;;;;58.57;3.37;;;;;;;;;;5051856;28;20430;-72
2022/05/08 11:15:53;;;;;;;58.37;3.23;;;;;;;;;;5051945;28;20826;-74
2022/05/08 11:18:22;;;;;;;59.30;4.00;;;;;;;;;;5050889;28;20448;-72
2022/05/08 11:20:50;;;;;;;61.00;4.77;;;;;;;;;;5051741;28;20476;-72
2022/05/08 11:23:19;;;;;;;59.17;3.67;;;;;;;;;;5051651;28;20882;-73
2022/05/08 11:25:46;;;;;;;58.40;3.17;;;;;;;;;;5051557;28;21012;-72
2022/05/08 11:28:15;;;;;;;60.10;3.30;;;;;;;;;;5050873;28;20487;-74
2022/05/08 11:30:43;;;;;;;60.67;3.50;;;;;;;;;;5051676;28;20909;-72
2022/05/08 11:36:05;;;;;;;58.47;2.80;;;;;;;;;;5051501;28;20940;-72
2022/05/08 11:38:33;;;;;;;59.20;4.07;;;;;;;;;;5050974;28;20483;-73
2022/05/08 11:41:02;;;;;;;59.33;3.50;;;;;;;;;;5051574;28;20464;-73
2022/05/08 11:43:40;;;;;;;59.40;3.93;;;;;;;;;;5051390;28;20941;-72
2022/05/08 11:46:08;;;;;;;59.37;3.93;;;;;;;;;;5051349;28;20447;-72
2022/05/08 11:48:40;;;;;;;58.30;3.47;;;;;;;;;;5050604;28;20487;-72
2022/05/08 11:51:08;;;;;;;59.47;4.20;;;;;;;;;;5051370;28;21073;-72
2022/05/08 11:53:42;;;;;;;58.70;3.10;;;;;;;;;;5051547;28;20828;-72
2022/05/08 11:56:25;;;;;;;59.37;3.30;;;;;;;;;;5051500;28;20535;-75
2022/05/08 11:58:53;;;;;;;58.10;2.60;;;;;;;;;;5050626;28;20526;-75
2022/05/08 12:01:27;;;;;;;59.07;3.60;;;;;;;;;;5051482;28;20480;-76
2022/05/08 12:03:54;;;;;;;58.50;3.27;;;;;;;;;;5051487;28;20942;-74
2022/05/08 12:06:22;;;;;;;58.57;3.27;;;;;;;;;;5051514;28;20534;-75
2022/05/08 12:08:49;;;;;;;57.90;3.23;;;;;;;;;;5050512;28;21038;-74
2022/05/08 12:11:34;;;;;;;58.40;3.40;;;;;;;;;;5051049;28;20500;-76
2022/05/08 12:14:07;;;;;;;58.50;3.20;;;;;;;;;;5051349;28;20446;-74
2022/05/08 12:16:35;;;;;;;58.40;3.13;;;;;;;;;;5051581;28;20459;-74
2022/05/08 12:19:12;;;;;;;58.10;2.80;;;;;;;;;;5050517;28;20502;-74
2022/05/08 12:21:39;;;;;;;58.40;3.20;;;;;;;;;;5051314;28;20975;-75
2022/05/08 12:24:11;;;;;;;58.50;3.43;;;;;;;;;;5051385;28;20484;-75
2022/05/08 12:26:38;;;;;;;59.13;3.77;;;;;;;;;;5051317;28;20525;-74
2022/05/08 12:29:09;;;;;;;58.20;2.90;;;;;;;;;;5052242;28;21079;-77
2022/05/08 12:31:36;;;;;;;58.13;3.13;;;;;;;;;;5054936;28;20444;-75
2022/05/08 12:34:05;;;;;;;57.77;2.80;;;;;;;;;;5054624;28;20479;-75
2022/05/08 12:36:33;;;;;;;58.00;2.60;;;;;;;;;;5054551;28;20930;-74
2022/05/08 12:39:00;;;;;;;57.90;2.67;;;;;;;;;;5054036;28;20487;-74
2022/05/08 12:41:27;;;;;;;58.27;2.73;;;;;;;;;;5054525;28;20470;-74
2022/05/08 12:43:55;;;;;;;58.17;3.00;;;;;;;;;;5054675;28;20455;-75
2022/05/08 12:46:23;;;;;;;57.73;2.60;;;;;;;;;;5054422;28;20448;-75
2022/05/08 12:48:50;;;;;;;58.37;2.70;;;;;;;;;;5053486;28;20570;-75
2022/05/08 12:51:17;;;;;;;59.40;3.40;;;;;;;;;;5054237;28;20500;-74
2022/05/08 12:53:44;;;;;;;61.10;2.87;;;;;;;;;;5054486;28;20531;-75
2022/05/08 12:56:12;;;;;;;57.60;2.53;;;;;;;;;;5054675;28;20448;-78
2022/05/08 13:01:25;;;;;;;58.73;2.77;;;;;;;;;;5055569;28;20562;-79
2022/05/08 13:03:53;;;;;;;58.67;2.97;;;;;;;;;;5055007;28;20497;-79
2022/05/08 13:06:21;;;;;;;58.60;2.60;;;;;;;;;;5054529;28;20813;-78
2022/05/08 13:08:48;;;;;;;57.80;2.60;;;;;;;;;;5062566;28;20519;-80
2022/05/08 13:11:15;;;;;;;58.10;2.60;;;;;;;;;;5063176;28;20472;-80
2022/05/08 13:13:42;;;;;;;58.70;3.20;;;;;;;;;;5061337;28;20454;-80
2022/05/08 13:16:11;;;;;;;62.40;7.30;;;;;;;;;;5061189;28;20543;-79
2022/05/08 13:18:40;;;;;;;59.60;4.10;;;;;;;;;;5059808;28;20455;-79
2022/05/08 13:21:07;;;;;;;60.57;4.00;;;;;;;;;;5060225;28;20535;-79
2022/05/08 13:23:35;;;;;;;57.97;2.77;;;;;;;;;;5064749;28;20527;-80
2022/05/08 13:26:02;;;;;;;59.10;2.87;;;;;;;;;;5060360;28;20807;-80
2022/05/08 13:28:32;;;;;;;58.67;3.07;;;;;;;;;;5057126;28;20484;-79
2022/05/08 13:30:59;;;;;;;59.37;4.07;;;;;;;;;;5057400;28;20536;-80
2022/05/08 13:33:27;;;;;;;59.83;3.87;;;;;;;;;;5058205;28;20625;-80
2022/05/08 13:35:55;;;;;;;65.00;6.00;;;;;;;;;;5057741;28;20457;-80
2022/05/08 13:38:24;;;;;;;58.60;3.43;;;;;;;;;;5056009;28;20452;-80
2022/05/08 13:40:51;;;;;;;59.30;3.90;;;;;;;;;;5054498;28;20472;-79
2022/05/08 13:43:18;;;;;;;58.70;3.20;;;;;;;;;;5055200;28;20471;-77
2022/05/08 13:45:46;;;;;;;60.70;4.00;;;;;;;;;;5053517;28;20448;-78
2022/05/08 13:48:13;;;;;;;58.20;3.40;;;;;;;;;;5052864;28;20543;-78
2022/05/08 13:50:42;;;;;;;58.40;3.10;;;;;;;;;;5053208;28;20476;-78
2022/05/08 13:53:10;;;;;;;58.87;3.47;;;;;;;;;;5053154;28;20452;-78
2022/05/08 13:55:38;;;;;;;58.77;3.20;;;;;;;;;;5053034;28;20448;-79
2022/05/08 13:58:06;;;;;;;60.27;3.03;;;;;;;;;;5052712;28;20463;-78
2022/05/08 14:00:33;;;;;;;59.10;3.20;;;;;;;;;;5053129;28;20475;-78
2022/05/08 14:03:00;;;;;;;58.87;3.70;;;;;;;;;;5052948;28;20448;-78
2022/05/08 14:05:27;;;;;;;58.53;3.00;;;;;;;;;;5053051;28;20456;-77
2022/05/08 14:07:54;;;;;;;58.50;3.20;;;;;;;;;;5052239;28;20459;-78
2022/05/08 14:10:23;;;;;;;58.60;2.50;;;;;;;;;;5052564;28;20996;-77
2022/05/08 14:12:50;;;;;;;58.70;3.10;;;;;;;;;;5052897;28;20459;-78
2022/05/08 14:15:20;;;;;;;61.23;3.60;;;;;;;;;;5053092;28;20445;-77
2022/05/08 14:17:48;;;;;;;60.13;3.40;;;;;;;;;;5052265;28;20883;-77
2022/05/08 14:20:15;;;;;;;58.60;2.80;;;;;;;;;;5052657;28;20472;-78
2022/05/08 14:22:42;;;;;;;58.80;3.40;;;;;;;;;;5052371;28;20456;-80
2022/05/08 14:25:10;;;;;;;58.70;2.70;;;;;;;;;;5052753;28;20487;-78
2022/05/08 14:27:39;;;;;;;60.10;3.83;;;;;;;;;;5052142;28;20794;-78
2022/05/08 14:30:09;;;;;;;58.00;2.57;;;;;;;;;;5052296;28;21056;-77
2022/05/08 14:38:05;;;;;;;61.63;2.87;;;;;;;;;;5051746;28;20424;-78
2022/05/08 14:40:33;;;;;;;58.20;3.10;;;;;;;;;;5052350;28;20508;-78
2022/05/08 14:43:01;;;;;;;58.17;2.40;;;;;;;;;;5052256;28;20527;-77
2022/05/08 14:45:29;;;;;;;59.67;3.87;;;;;;;;;;5052015;28;21059;-80
2022/05/08 14:47:57;;;;;;;58.23;3.07;;;;;;;;;;5051945;28;20455;-79
2022/05/08 14:50:24;;;;;;;59.07;3.70;;;;;;;;;;5052174;28;20502;-79
2022/05/08 14:52:52;;;;;;;67.70;3.60;;;;;;;;;;5052223;28;20457;-78
2022/05/08 14:55:19;;;;;;;60.10;3.77;;;;;;;;;;5052095;28;20455;-78
2022/05/08 14:57:46;;;;;;;60.80;3.00;;;;;;;;;;5051767;28;20878;-78
2022/05/08 15:00:15;;;;;;;58.07;2.77;;;;;;;;;;5052015;28;21026;-79
2022/05/08 15:02:43;;;;;;;58.00;2.90;;;;;;;;;;5052190;28;20478;-77
2022/05/08 15:05:10;;;;;;;58.23;2.70;;;;;;;;;;5051846;28;20942;-78
2022/05/08 15:07:37;;;;;;;59.67;3.67;;;;;;;;;;5051269;28;20457;-78
2022/05/08 15:10:05;;;;;;;57.63;2.90;;;;;;;;;;5051821;28;20493;-77
2022/05/08 15:12:33;;;;;;;58.07;2.97;;;;;;;;;;5051686;28;20817;-78
2022/05/08 15:15:01;;;;;;;58.50;3.30;;;;;;;;;;5051990;28;20483;-78
2022/05/08 15:17:29;;;;;;;58.40;3.17;;;;;;;;;;5051629;28;20456;-77